NCAR-RAP Real-Time Weather Data

Output produced by METARs form (21 May 2019  10:56 UTC)
found at http://weather.rap.ucar.edu/surface/
 
RJBD 211000Z 32011KT 9999 FEW040 20/13 Q1002
RJBD 210900Z 30011KT 9999 FEW035 21/15 Q1002
RJBD 210800Z 30011KT 9999 FEW030 SCT/// 21/14 Q1002
RJBD 210700Z 30014KT 9999 FEW030 SCT/// 22/14 Q1002
RJBD 210600Z 29013KT 9999 FEW025 22/15 Q1002
RJBD 210500Z 30014KT 9999 FEW020 SCT/// 23/14 Q1002
RJBD 210400Z 32015KT 290V350 9999 FEW025 SCT/// 23/13 Q1002
RJBD 210300Z 34016KT 9999 FEW025 BKN/// 23/14 Q1002
RJBD 210200Z 34017KT 9999 FEW025 SCT120 BKN/// 21/15 Q1003
RJBD 210100Z 32013KT 9999 FEW025 SCT080 BKN100 21/16 Q1002
RJBD 210000Z 32013KT 9999 FEW025 SCT070 BKN100 20/17 Q1003
RJBD 202300Z 34013KT 9999 FEW010 SCT030 BKN070 20/17 Q1002
RJBD 202240Z 34014KT 9999 FEW009 SCT030 BKN060 19/17 Q1002 RMK 1ST009 3CU030 6SC060 A2961
RJBD 201000Z 13021KT 4000 -SHRA BR FEW015 SCT040 BKN050 20/18 Q1006
RJBD 200900Z 13019G33KT 9999 -SHRA FEW020 SCT040 BKN050 20/17 Q1007
RJBD 200800Z 13017G28KT 9999 VCSH FEW020 SCT025 BKN050 22/17 Q1007
RJBD 200700Z 13019G33KT 9999 VCSH FEW020 BKN025 BKN050 22/16 Q1008
RJBD 200600Z 14019G29KT 9999 VCSH FEW020 BKN025 BKN050 22/17 Q1009
RJBD 200500Z 13015KT 9999 -SHRA FEW020 BKN025 BKN050 21/17 Q1009
RJBD 200400Z 12015KT 090V150 9999 VCSH FEW020 BKN025 BKN050 22/17 Q1010
RJBD 200300Z 12014G25KT 9999 -SHRA FEW020 BKN025 BKN080 22/16 Q1011
RJBD 200200Z 12013KT 090V160 9999 VCSH FEW020 BKN025 BKN045 22/16 Q1011
RJBD 200100Z 12014KT 9999 VCSH FEW020 BKN025 BKN050 22/17 Q1012
RJBD 200000Z 12013KT 9999 VCSH FEW020 BKN025 BKN050 21/16 Q1012
RJBD 192300Z 12014KT 9999 VCSH FEW020 BKN030 BKN050 21/16 Q1013
RJBD 192240Z 13015KT 080V150 9999 VCSH FEW020 BKN025 BKN060 21/16 Q1013 RMK 1CU020 5CU025 6SC060 A2992
RJBD 191000Z 10012KT 070V130 9999 FEW020 SCT030 BKN150 20/13 Q1016
RJBD 190900Z 12007KT 070V150 9999 FEW020 SCT030 BKN150 20/14 Q1016
RJBD 190800Z 13012KT 080V150 9999 FEW015 SCT030 BKN035 21/14 Q1017
RJBD 190700Z 11013KT 080V150 9999 FEW015 SCT025 BKN035 21/14 Q1017
RJBD 190600Z 11014KT 080V140 9999 FEW015 SCT025 BKN035 21/15 Q1017
RJBD 190500Z 11014KT 080V150 9999 FEW025 SCT035 BKN050 22/15 Q1018
RJBD 190400Z 10014G24KT 070V130 9999 FEW025 BKN035 BKN050 22/15 Q1018
RJBD 190300Z 11015KT 080V160 9999 FEW030 BKN050 BKN070 22/15 Q1018
RJBD 190200Z 12014KT 090V160 9999 FEW020 BKN035 BKN050 23/15 Q1018
RJBD 190100Z 12016KT 080V140 9999 FEW020 BKN035 BKN060 21/14 Q1019
RJBD 190000Z 13013KT 9999 FEW025 BKN035 BKN110 22/15 Q1018
RJBD 182300Z 11012KT 070V140 9999 FEW020 SCT035 BKN110 21/15 Q1018